Celoron, New York
Current Conditions -  °F | °C
As of 12:55 AM on Friday 31 Oct 2014 (Local Time) from KJHW Reporting Station
Clear Clear  
Wind Chill: 33°   Ceiling: Unl
Heat Index: 37°   Visibility: 10mi
Dew Point: 36°   Wind: 6mph
Humidity: 93%   Direction: 210°SSW
Pressure: 30"   Gusts: NA
Location:  42.11°N, 79.28°W
Report Text: KJHW 310455Z AUTO 21005KT 10SM CLR 03/02 A3000 RMK AO1
Loading
Personal Weather Stations






























Interactive Weather Map
Tropical Storm Tracking
New forecast layout! Learn more

10-Day Weather Forecast

Advertisements
Track Severe Weather on mobile